< Typhoon 197319 1973 Season Typhoon 197321 >
Typhoon 197320 (THELMA)
General InformationTrack Information on Google Maps || Disaster Info.ResourceGoogle EarthGE AnimationAtom FeedGeoJSON
Detalied Best Track (Time Zone = UTC)
Year Month Day Hour Lat. Long. Pressure (hPa) Wind (kt) Class Image Chart
1973 11 13 06 7.5 122.0 1005 0 2 -- Chart
1973 11 13 12 8.0 120.6 1005 0 2 -- Chart
1973 11 13 18 8.4 119.2 1005 0 2 -- Chart
1973 11 14 00 8.8 118.0 1005 0 2 -- Chart
1973 11 14 06 9.1 117.0 1005 0 2 -- Chart
1973 11 14 12 9.3 115.3 1004 0 2 -- Chart
1973 11 14 18 9.4 113.6 1002 0 2 -- Chart
1973 11 15 00 9.6 111.3 998 0 9 -- Chart
1973 11 15 06 9.7 109.8 992 0 9 -- Chart
1973 11 15 12 9.7 108.7 992 0 9 -- Chart
1973 11 15 18 9.8 108.0 994 0 9 -- Chart
1973 11 16 00 9.8 107.3 996 0 9 -- Chart
1973 11 16 06 9.8 106.8 998 0 2 -- Chart
1973 11 16 12 9.8 106.4 998 0 2 -- Chart
1973 11 16 18 9.8 105.5 1002 0 2 -- Chart
1973 11 17 00 9.7 104.9 1004 0 2 -- Chart
1973 11 17 06 9.5 104.0 1004 0 2 -- Chart
1973 11 17 12 9.5 103.0 1004 0 2 -- Chart
1973 11 17 18 9.5 102.0 1004 0 2 -- Chart
1973 11 18 00 9.6 101.2 1004 0 2 -- Chart
1973 11 18 06 9.7 100.5 1006 0 2 -- Chart
1973 11 18 12 10.5 99.9 1006 0 2 -- Chart
Japan Meteorological Agency Best Track Data | Correction Date : 1990-10-17
< Typhoon 197319 1973 Season Typhoon 197321 >

Help